Brynamman, United Kingdom
Current Conditions -  °F | °C
As of 6:50 AM on Saturday 20 Dec 2014 (Local Time) from EGOP Reporting Station
Few Clouds Few Clouds  
Wind Chill: 38°   Ceiling: Unl
Heat Index: 46°   Visibility: 6mi
Dew Point: 41°   Wind: 23mph
Humidity: 81%   Direction: 280°W
Pressure: 30.3"   Gusts: NA
Location:  51.8°N, 3.87°W
Report Text: EGOP 200650Z AUTO 28020KT 9999 // FEW037/// 08/05 Q1026
Loading
Personal Weather Stations






























Interactive Weather Map New forecast layout! Learn more

10-Day Weather Forecast

Advertisements
Track Severe Weather on mobile